sensor_id;sensor_type;location;lat;lon;timestamp;pressure;altitude;pressure_sealevel;temperature;humidity
54948;BME280;41113;41.882;12.530;2023-04-19T00:02:15;101037.22;;;12.39;99.36
54948;BME280;41113;41.882;12.530;2023-04-19T00:04:42;101038.75;;;12.32;99.46
54948;BME280;41113;41.882;12.530;2023-04-19T00:07:08;101038.31;;;12.27;99.41
54948;BME280;41113;41.882;12.530;2023-04-19T00:09:34;101046.25;;;12.19;99.99
54948;BME280;41113;41.882;12.530;2023-04-19T00:11:59;101044.25;;;12.21;100.00
54948;BME280;41113;41.882;12.530;2023-04-19T00:14:25;101046.66;;;12.14;100.00
54948;BME280;41113;41.882;12.530;2023-04-19T00:16:50;101045.38;;;12.08;100.00
54948;BME280;41113;41.882;12.530;2023-04-19T00:19:16;101041.97;;;12.06;100.00
54948;BME280;41113;41.882;12.530;2023-04-19T00:21:42;101042.28;;;12.13;100.00
54948;BME280;41113;41.882;12.530;2023-04-19T00:24:07;101044.09;;;12.12;100.00
54948;BME280;41113;41.882;12.530;2023-04-19T00:26:32;101043.56;;;12.19;100.00
54948;BME280;41113;41.882;12.530;2023-04-19T00:28:58;101048.81;;;12.20;99.86
54948;BME280;41113;41.882;12.530;2023-04-19T00:31:23;101043.69;;;12.17;99.63
54948;BME280;41113;41.882;12.530;2023-04-19T00:33:48;101042.13;;;12.14;100.00
54948;BME280;41113;41.882;12.530;2023-04-19T00:36:14;101044.19;;;12.01;100.00
54948;BME280;41113;41.882;12.530;2023-04-19T00:38:39;101045.03;;;11.92;100.00
54948;BME280;41113;41.882;12.530;2023-04-19T00:41:05;101044.59;;;11.87;100.00
54948;BME280;41113;41.882;12.530;2023-04-19T00:43:30;101036.66;;;11.95;100.00
54948;BME280;41113;41.882;12.530;2023-04-19T00:45:56;101041.97;;;12.06;100.00
54948;BME280;41113;41.882;12.530;2023-04-19T00:48:21;101040.13;;;12.07;100.00
54948;BME280;41113;41.882;12.530;2023-04-19T00:50:47;101038.50;;;11.95;100.00
54948;BME280;41113;41.882;12.530;2023-04-19T00:53:13;101037.56;;;11.75;100.00
54948;BME280;41113;41.882;12.530;2023-04-19T00:55:38;101038.09;;;11.69;100.00
54948;BME280;41113;41.882;12.530;2023-04-19T00:58:08;101028.00;;;11.82;100.00
54948;BME280;41113;41.882;12.530;2023-04-19T01:00:34;101023.97;;;11.76;100.00
54948;BME280;41113;41.882;12.530;2023-04-19T01:02:59;101033.78;;;11.57;100.00
54948;BME280;41113;41.882;12.530;2023-04-19T01:05:25;101032.06;;;11.46;100.00
54948;BME280;41113;41.882;12.530;2023-04-19T01:07:51;101030.94;;;11.48;100.00
54948;BME280;41113;41.882;12.530;2023-04-19T01:10:17;101031.19;;;11.45;100.00
54948;BME280;41113;41.882;12.530;2023-04-19T01:12:42;101026.72;;;11.35;100.00
54948;BME280;41113;41.882;12.530;2023-04-19T01:15:08;101030.53;;;11.32;100.00
54948;BME280;41113;41.882;12.530;2023-04-19T01:17:33;101031.13;;;11.36;100.00
54948;BME280;41113;41.882;12.530;2023-04-19T01:20:00;101033.44;;;11.40;100.00
54948;BME280;41113;41.882;12.530;2023-04-19T01:22:25;101029.28;;;11.36;100.00
54948;BME280;41113;41.882;12.530;2023-04-19T01:24:52;101031.06;;;11.26;100.00
54948;BME280;41113;41.882;12.530;2023-04-19T01:27:18;101028.59;;;11.13;100.00
54948;BME280;41113;41.882;12.530;2023-04-19T01:29:44;101030.03;;;11.17;100.00
54948;BME280;41113;41.882;12.530;2023-04-19T01:32:09;101022.63;;;11.10;100.00
54948;BME280;41113;41.882;12.530;2023-04-19T01:34:37;101029.19;;;11.17;100.00
54948;BME280;41113;41.882;12.530;2023-04-19T01:37:02;101022.81;;;11.18;100.00
54948;BME280;41113;41.882;12.530;2023-04-19T01:39:27;101028.19;;;11.18;100.00
54948;BME280;41113;41.882;12.530;2023-04-19T01:41:53;101027.94;;;11.21;100.00
54948;BME280;41113;41.882;12.530;2023-04-19T01:44:18;101029.50;;;11.23;100.00
54948;BME280;41113;41.882;12.530;2023-04-19T01:46:44;101026.50;;;11.17;100.00
54948;BME280;41113;41.882;12.530;2023-04-19T01:49:09;101024.06;;;11.14;100.00
54948;BME280;41113;41.882;12.530;2023-04-19T01:51:36;101021.25;;;11.15;100.00
54948;BME280;41113;41.882;12.530;2023-04-19T01:54:01;101020.22;;;11.07;100.00
54948;BME280;41113;41.882;12.530;2023-04-19T01:56:26;101031.94;;;11.06;100.00
54948;BME280;41113;41.882;12.530;2023-04-19T01:58:52;101022.78;;;11.08;100.00
54948;BME280;41113;41.882;12.530;2023-04-19T02:01:17;101027.03;;;11.11;100.00
54948;BME280;41113;41.882;12.530;2023-04-19T02:03:42;101025.19;;;11.11;100.00
54948;BME280;41113;41.882;12.530;2023-04-19T02:06:12;101023.81;;;11.17;100.00
54948;BME280;41113;41.882;12.530;2023-04-19T02:08:38;101027.53;;;11.05;100.00
54948;BME280;41113;41.882;12.530;2023-04-19T02:11:10;101024.47;;;11.09;100.00
54948;BME280;41113;41.882;12.530;2023-04-19T02:13:36;101032.91;;;11.05;100.00
54948;BME280;41113;41.882;12.530;2023-04-19T02:16:02;101024.34;;;11.11;100.00
54948;BME280;41113;41.882;12.530;2023-04-19T02:18:28;101027.75;;;11.13;100.00
54948;BME280;41113;41.882;12.530;2023-04-19T02:21:00;101022.97;;;11.16;100.00
54948;BME280;41113;41.882;12.530;2023-04-19T02:23:25;101024.78;;;11.16;100.00
54948;BME280;41113;41.882;12.530;2023-04-19T02:25:50;101026.22;;;11.20;100.00
54948;BME280;41113;41.882;12.530;2023-04-19T02:28:16;101014.94;;;11.26;100.00
54948;BME280;41113;41.882;12.530;2023-04-19T02:30:41;101020.31;;;11.26;100.00
54948;BME280;41113;41.882;12.530;2023-04-19T02:33:07;101018.94;;;11.32;100.00
54948;BME280;41113;41.882;12.530;2023-04-19T02:35:32;101016.47;;;11.19;100.00
54948;BME280;41113;41.882;12.530;2023-04-19T02:37:59;101017.25;;;11.10;100.00
54948;BME280;41113;41.882;12.530;2023-04-19T02:40:24;101015.88;;;10.95;100.00
54948;BME280;41113;41.882;12.530;2023-04-19T02:42:51;101013.00;;;10.86;100.00
54948;BME280;41113;41.882;12.530;2023-04-19T02:45:16;101020.31;;;10.84;100.00
54948;BME280;41113;41.882;12.530;2023-04-19T02:47:42;101017.13;;;10.90;100.00
54948;BME280;41113;41.882;12.530;2023-04-19T02:50:07;101023.47;;;10.89;100.00
54948;BME280;41113;41.882;12.530;2023-04-19T02:52:33;101010.97;;;10.79;100.00
54948;BME280;41113;41.882;12.530;2023-04-19T02:54:59;101013.50;;;10.80;100.00
54948;BME280;41113;41.882;12.530;2023-04-19T02:57:24;101015.47;;;10.78;100.00
54948;BME280;41113;41.882;12.530;2023-04-19T02:59:50;101017.63;;;10.84;100.00
54948;BME280;41113;41.882;12.530;2023-04-19T03:02:15;101013.19;;;10.95;100.00
54948;BME280;41113;41.882;12.530;2023-04-19T03:04:40;101016.41;;;10.88;100.00
54948;BME280;41113;41.882;12.530;2023-04-19T03:07:08;101018.16;;;10.78;100.00
54948;BME280;41113;41.882;12.530;2023-04-19T03:09:33;101008.91;;;10.71;100.00
54948;BME280;41113;41.882;12.530;2023-04-19T03:11:59;101017.94;;;10.70;100.00
54948;BME280;41113;41.882;12.530;2023-04-19T03:14:25;101022.72;;;10.67;100.00
54948;BME280;41113;41.882;12.530;2023-04-19T03:16:50;101017.28;;;10.57;100.00
54948;BME280;41113;41.882;12.530;2023-04-19T03:19:16;101019.56;;;10.62;100.00
54948;BME280;41113;41.882;12.530;2023-04-19T03:21:41;101021.88;;;10.66;100.00
54948;BME280;41113;41.882;12.530;2023-04-19T03:24:07;101029.72;;;10.58;100.00
54948;BME280;41113;41.882;12.530;2023-04-19T03:26:32;101021.31;;;10.51;100.00
54948;BME280;41113;41.882;12.530;2023-04-19T03:28:57;101022.78;;;10.55;100.00
54948;BME280;41113;41.882;12.530;2023-04-19T03:31:23;101028.00;;;10.57;100.00
54948;BME280;41113;41.882;12.530;2023-04-19T03:33:48;101021.19;;;10.53;100.00
54948;BME280;41113;41.882;12.530;2023-04-19T03:36:13;101025.00;;;10.50;100.00
54948;BME280;41113;41.882;12.530;2023-04-19T03:38:39;101035.53;;;10.42;100.00
54948;BME280;41113;41.882;12.530;2023-04-19T03:41:05;101034.16;;;10.37;100.00
54948;BME280;41113;41.882;12.530;2023-04-19T03:43:42;101032.09;;;10.40;100.00
54948;BME280;41113;41.882;12.530;2023-04-19T03:46:07;101036.38;;;10.43;100.00
54948;BME280;41113;41.882;12.530;2023-04-19T03:48:32;101035.66;;;10.41;100.00
54948;BME280;41113;41.882;12.530;2023-04-19T03:50:59;101038.06;;;10.44;100.00
54948;BME280;41113;41.882;12.530;2023-04-19T03:53:25;101038.34;;;10.41;100.00
54948;BME280;41113;41.882;12.530;2023-04-19T03:55:50;101035.88;;;10.38;100.00
54948;BME280;41113;41.882;12.530;2023-04-19T03:58:15;101031.22;;;10.40;100.00
54948;BME280;41113;41.882;12.530;2023-04-19T04:00:41;101032.97;;;10.41;100.00
54948;BME280;41113;41.882;12.530;2023-04-19T04:03:06;101029.31;;;10.42;100.00
54948;BME280;41113;41.882;12.530;2023-04-19T04:05:31;101022.31;;;10.50;100.00
54948;BME280;41113;41.882;12.530;2023-04-19T04:07:57;101031.94;;;10.53;100.00
54948;BME280;41113;41.882;12.530;2023-04-19T04:10:22;101032.44;;;10.47;100.00
54948;BME280;41113;41.882;12.530;2023-04-19T04:12:47;101039.19;;;10.41;100.00
54948;BME280;41113;41.882;12.530;2023-04-19T04:15:13;101034.66;;;10.42;100.00
54948;BME280;41113;41.882;12.530;2023-04-19T04:17:38;101035.66;;;10.29;100.00
54948;BME280;41113;41.882;12.530;2023-04-19T04:20:03;101035.78;;;10.28;100.00
54948;BME280;41113;41.882;12.530;2023-04-19T04:22:29;101034.44;;;10.34;100.00
54948;BME280;41113;41.882;12.530;2023-04-19T04:24:55;101043.44;;;10.44;100.00
54948;BME280;41113;41.882;12.530;2023-04-19T04:27:22;101033.13;;;10.60;100.00
54948;BME280;41113;41.882;12.530;2023-04-19T04:29:47;101039.75;;;10.56;100.00
54948;BME280;41113;41.882;12.530;2023-04-19T04:32:13;101047.13;;;10.43;100.00
54948;BME280;41113;41.882;12.530;2023-04-19T04:34:42;101049.69;;;10.33;100.00
54948;BME280;41113;41.882;12.530;2023-04-19T04:37:08;101052.97;;;10.37;100.00
54948;BME280;41113;41.882;12.530;2023-04-19T04:39:34;101053.09;;;10.46;100.00
54948;BME280;41113;41.882;12.530;2023-04-19T04:42:03;101052.81;;;10.49;100.00
54948;BME280;41113;41.882;12.530;2023-04-19T04:44:32;101053.69;;;10.82;100.00
54948;BME280;41113;41.882;12.530;2023-04-19T04:46:58;101054.09;;;11.19;100.00
54948;BME280;41113;41.882;12.530;2023-04-19T04:49:23;101050.34;;;11.31;98.99
54948;BME280;41113;41.882;12.530;2023-04-19T04:51:48;101053.97;;;11.41;98.50
54948;BME280;41113;41.882;12.530;2023-04-19T04:54:14;101051.06;;;12.25;95.71
54948;BME280;41113;41.882;12.530;2023-04-19T04:56:39;101051.72;;;12.76;90.26
54948;BME280;41113;41.882;12.530;2023-04-19T04:59:05;101052.16;;;13.20;84.73
54948;BME280;41113;41.882;12.530;2023-04-19T05:01:31;101055.97;;;13.37;81.90
54948;BME280;41113;41.882;12.530;2023-04-19T05:03:57;101059.66;;;13.26;81.13
54948;BME280;41113;41.882;12.530;2023-04-19T05:06:22;101054.19;;;13.92;79.60
54948;BME280;41113;41.882;12.530;2023-04-19T05:08:48;101064.66;;;13.78;79.34
54948;BME280;41113;41.882;12.530;2023-04-19T05:11:13;101053.50;;;13.90;77.19
54948;BME280;41113;41.882;12.530;2023-04-19T05:13:38;101056.41;;;14.34;75.94
54948;BME280;41113;41.882;12.530;2023-04-19T05:16:04;101059.09;;;14.61;75.10
54948;BME280;41113;41.882;12.530;2023-04-19T05:18:30;101060.03;;;14.88;71.59
54948;BME280;41113;41.882;12.530;2023-04-19T05:20:56;101062.31;;;15.36;71.50
54948;BME280;41113;41.882;12.530;2023-04-19T05:23:21;101066.63;;;15.99;69.52
54948;BME280;41113;41.882;12.530;2023-04-19T05:25:47;101058.72;;;16.64;65.52
54948;BME280;41113;41.882;12.530;2023-04-19T05:28:12;101056.91;;;16.30;65.35
54948;BME280;41113;41.882;12.530;2023-04-19T05:30:37;101053.22;;;15.97;66.95
54948;BME280;41113;41.882;12.530;2023-04-19T05:33:03;101057.16;;;16.03;66.43
54948;BME280;41113;41.882;12.530;2023-04-19T05:35:29;101060.22;;;16.08;65.71
54948;BME280;41113;41.882;12.530;2023-04-19T05:37:54;101060.06;;;15.75;67.23
54948;BME280;41113;41.882;12.530;2023-04-19T05:40:20;101057.16;;;16.03;67.70
54948;BME280;41113;41.882;12.530;2023-04-19T05:42:47;101050.53;;;16.47;64.91
54948;BME280;41113;41.882;12.530;2023-04-19T05:45:14;101056.72;;;16.90;65.28
54948;BME280;41113;41.882;12.530;2023-04-19T05:47:39;101051.31;;;17.06;64.42
54948;BME280;41113;41.882;12.530;2023-04-19T05:50:05;101059.66;;;16.38;64.87
54948;BME280;41113;41.882;12.530;2023-04-19T05:52:31;101061.03;;;15.66;68.04
54948;BME280;41113;41.882;12.530;2023-04-19T05:54:57;101062.72;;;15.67;67.82
54948;BME280;41113;41.882;12.530;2023-04-19T05:57:22;101060.94;;;15.14;70.24
54948;BME280;41113;41.882;12.530;2023-04-19T05:59:48;101060.88;;;14.88;71.92
54948;BME280;41113;41.882;12.530;2023-04-19T06:02:13;101059.38;;;15.30;71.06
54948;BME280;41113;41.882;12.530;2023-04-19T06:04:38;101065.53;;;15.40;70.17
54948;BME280;41113;41.882;12.530;2023-04-19T06:07:04;101070.59;;;15.86;70.07
54948;BME280;41113;41.882;12.530;2023-04-19T06:09:29;101070.78;;;16.69;68.21
54948;BME280;41113;41.882;12.530;2023-04-19T06:11:55;101070.31;;;17.31;65.24
54948;BME280;41113;41.882;12.530;2023-04-19T06:14:21;101065.50;;;17.90;63.87
54948;BME280;41113;41.882;12.530;2023-04-19T06:16:46;101054.81;;;17.64;60.36
54948;BME280;41113;41.882;12.530;2023-04-19T06:19:12;101056.81;;;17.86;62.39
54948;BME280;41113;41.882;12.530;2023-04-19T06:21:38;101060.47;;;17.30;64.52
54948;BME280;41113;41.882;12.530;2023-04-19T06:24:05;101058.44;;;17.24;64.69
54948;BME280;41113;41.882;12.530;2023-04-19T06:26:30;101056.19;;;17.76;62.78
54948;BME280;41113;41.882;12.530;2023-04-19T06:28:56;101059.41;;;16.66;63.59
54948;BME280;41113;41.882;12.530;2023-04-19T06:31:22;101060.38;;;15.72;67.47
54948;BME280;41113;41.882;12.530;2023-04-19T06:33:48;101052.38;;;15.45;68.78
54948;BME280;41113;41.882;12.530;2023-04-19T06:36:13;101059.41;;;14.94;71.58
54948;BME280;41113;41.882;12.530;2023-04-19T06:38:39;101064.69;;;13.95;76.19
54948;BME280;41113;41.882;12.530;2023-04-19T06:41:06;101065.59;;;13.86;77.20
54948;BME280;41113;41.882;12.530;2023-04-19T06:43:31;101056.59;;;13.68;78.21
54948;BME280;41113;41.882;12.530;2023-04-19T06:45:59;101060.47;;;14.48;76.48
54948;BME280;41113;41.882;12.530;2023-04-19T06:48:25;101064.06;;;14.84;73.49
54948;BME280;41113;41.882;12.530;2023-04-19T06:50:51;101063.47;;;15.34;72.22
54948;BME280;41113;41.882;12.530;2023-04-19T06:53:17;101063.69;;;14.97;72.49
54948;BME280;41113;41.882;12.530;2023-04-19T06:55:43;101065.22;;;14.81;72.44
54948;BME280;41113;41.882;12.530;2023-04-19T06:58:08;101072.19;;;14.39;74.55
54948;BME280;41113;41.882;12.530;2023-04-19T07:00:35;101074.41;;;14.71;73.61
54948;BME280;41113;41.882;12.530;2023-04-19T07:03:00;101069.13;;;15.22;72.37
54948;BME280;41113;41.882;12.530;2023-04-19T07:05:26;101070.56;;;15.78;71.10
54948;BME280;41113;41.882;12.530;2023-04-19T07:07:51;101077.13;;;16.02;70.09
54948;BME280;41113;41.882;12.530;2023-04-19T07:10:17;101069.63;;;16.30;68.73
54948;BME280;41113;41.882;12.530;2023-04-19T07:12:42;101069.66;;;15.96;69.80
54948;BME280;41113;41.882;12.530;2023-04-19T07:15:08;101071.59;;;15.34;70.91
54948;BME280;41113;41.882;12.530;2023-04-19T07:17:34;101076.00;;;15.35;72.39
54948;BME280;41113;41.882;12.530;2023-04-19T07:20:01;101075.34;;;15.59;72.44
54948;BME280;41113;41.882;12.530;2023-04-19T07:22:27;101072.59;;;15.33;72.58
54948;BME280;41113;41.882;12.530;2023-04-19T07:24:53;101071.94;;;15.82;71.55
54948;BME280;41113;41.882;12.530;2023-04-19T07:27:19;101077.22;;;15.92;71.19
54948;BME280;41113;41.882;12.530;2023-04-19T07:29:44;101069.91;;;15.84;71.14
54948;BME280;41113;41.882;12.530;2023-04-19T07:32:10;101070.75;;;15.59;71.60
54948;BME280;41113;41.882;12.530;2023-04-19T07:34:36;101066.72;;;15.89;71.39
54948;BME280;41113;41.882;12.530;2023-04-19T07:37:02;101076.94;;;15.95;71.04
54948;BME280;41113;41.882;12.530;2023-04-19T07:39:27;101069.50;;;15.71;72.03
54948;BME280;41113;41.882;12.530;2023-04-19T07:41:54;101068.19;;;15.57;72.85
54948;BME280;41113;41.882;12.530;2023-04-19T07:44:20;101067.50;;;16.07;71.77
54948;BME280;41113;41.882;12.530;2023-04-19T07:46:46;101061.06;;;16.59;69.96
54948;BME280;41113;41.882;12.530;2023-04-19T07:49:12;101064.50;;;16.69;68.56
54948;BME280;41113;41.882;12.530;2023-04-19T07:51:37;101068.56;;;16.23;70.07
54948;BME280;41113;41.882;12.530;2023-04-19T07:54:03;101068.84;;;16.03;71.32
54948;BME280;41113;41.882;12.530;2023-04-19T07:56:28;101066.78;;;16.47;70.58
54948;BME280;41113;41.882;12.530;2023-04-19T07:58:54;101062.22;;;16.48;70.17
54948;BME280;41113;41.882;12.530;2023-04-19T08:01:19;101052.97;;;16.75;69.31
54948;BME280;41113;41.882;12.530;2023-04-19T08:03:45;101052.69;;;16.94;68.80
54948;BME280;41113;41.882;12.530;2023-04-19T08:06:11;101061.81;;;17.09;68.06
54948;BME280;41113;41.882;12.530;2023-04-19T08:08:37;101053.56;;;16.53;67.07
54948;BME280;41113;41.882;12.530;2023-04-19T08:11:03;101056.50;;;16.09;70.42
54948;BME280;41113;41.882;12.530;2023-04-19T08:13:28;101060.66;;;16.29;69.90
54948;BME280;41113;41.882;12.530;2023-04-19T08:15:54;101048.16;;;16.53;69.51
54948;BME280;41113;41.882;12.530;2023-04-19T08:18:20;101053.56;;;16.53;69.82
54948;BME280;41113;41.882;12.530;2023-04-19T08:20:46;101060.44;;;16.23;70.04
54948;BME280;41113;41.882;12.530;2023-04-19T08:23:12;101057.38;;;16.26;71.14
54948;BME280;41113;41.882;12.530;2023-04-19T08:25:38;101052.97;;;16.75;69.99
54948;BME280;41113;41.882;12.530;2023-04-19T08:28:04;101049.75;;;16.79;68.90
54948;BME280;41113;41.882;12.530;2023-04-19T08:30:32;101042.16;;;16.99;68.69
54948;BME280;41113;41.882;12.530;2023-04-19T08:32:57;101042.31;;;17.14;67.92
54948;BME280;41113;41.882;12.530;2023-04-19T08:35:23;101040.78;;;17.36;67.84
54948;BME280;41113;41.882;12.530;2023-04-19T08:37:49;101040.41;;;17.63;67.54
54948;BME280;41113;41.882;12.530;2023-04-19T08:40:15;101035.97;;;17.54;67.46
54948;BME280;41113;41.882;12.530;2023-04-19T08:42:42;101038.34;;;17.73;67.30
54948;BME280;41113;41.882;12.530;2023-04-19T08:45:07;101040.03;;;17.66;67.47
54948;BME280;41113;41.882;12.530;2023-04-19T08:47:35;101034.97;;;17.63;66.20
54948;BME280;41113;41.882;12.530;2023-04-19T08:50:03;101031.31;;;16.91;69.07
54948;BME280;41113;41.882;12.530;2023-04-19T08:52:29;101045.19;;;16.72;68.75
54948;BME280;41113;41.882;12.530;2023-04-19T08:54:57;101033.34;;;17.05;68.95
54948;BME280;41113;41.882;12.530;2023-04-19T08:57:22;101029.91;;;17.44;67.66
54948;BME280;41113;41.882;12.530;2023-04-19T08:59:48;101028.50;;;17.64;66.99
54948;BME280;41113;41.882;12.530;2023-04-19T09:02:19;101026.44;;;17.91;67.17
54948;BME280;41113;41.882;12.530;2023-04-19T09:04:46;101031.59;;;17.69;66.21
54948;BME280;41113;41.882;12.530;2023-04-19T09:07:25;101024.09;;;17.55;66.44
54948;BME280;41113;41.882;12.530;2023-04-19T09:10:20;101023.31;;;17.30;66.98
54948;BME280;41113;41.882;12.530;2023-04-19T09:13:03;101023.06;;;17.64;66.99
54948;BME280;41113;41.882;12.530;2023-04-19T09:15:40;101024.88;;;17.88;65.70
54948;BME280;41113;41.882;12.530;2023-04-19T09:18:09;101023.50;;;18.00;65.75
54948;BME280;41113;41.882;12.530;2023-04-19T09:23:06;101025.88;;;18.34;65.00
54948;BME280;41113;41.882;12.530;2023-04-19T09:25:32;101018.78;;;18.56;64.31
54948;BME280;41113;41.882;12.530;2023-04-19T09:28:11;101015.91;;;18.81;63.21
54948;BME280;41113;41.882;12.530;2023-04-19T09:30:37;101013.72;;;18.76;60.91
54948;BME280;41113;41.882;12.530;2023-04-19T09:33:03;101012.28;;;18.88;63.55
54948;BME280;41113;41.882;12.530;2023-04-19T09:35:49;101016.91;;;19.03;62.26
54948;BME280;41113;41.882;12.530;2023-04-19T09:38:15;101005.75;;;19.12;62.60
54948;BME280;41113;41.882;12.530;2023-04-19T09:40:41;101012.34;;;19.18;62.42
54948;BME280;41113;41.882;12.530;2023-04-19T09:43:06;100998.31;;;19.29;62.06
54948;BME280;41113;41.882;12.530;2023-04-19T09:45:45;100998.88;;;19.39;59.98
54948;BME280;41113;41.882;12.530;2023-04-19T09:48:11;101003.56;;;19.45;61.38
54948;BME280;41113;41.882;12.530;2023-04-19T09:51:00;101006.94;;;19.47;59.32
54948;BME280;41113;41.882;12.530;2023-04-19T09:53:27;101003.81;;;19.58;60.92
54948;BME280;41113;41.882;12.530;2023-04-19T09:55:53;101010.84;;;19.68;60.48
54948;BME280;41113;41.882;12.530;2023-04-19T09:58:22;101002.13;;;19.57;60.13
54948;BME280;41113;41.882;12.530;2023-04-19T10:00:54;101003.91;;;19.65;59.88
54948;BME280;41113;41.882;12.530;2023-04-19T10:03:21;101001.38;;;19.64;60.21
54948;BME280;41113;41.882;12.530;2023-04-19T10:05:49;100997.41;;;19.51;60.19
54948;BME280;41113;41.882;12.530;2023-04-19T10:08:16;100994.66;;;19.37;59.95
54948;BME280;41113;41.882;12.530;2023-04-19T10:10:44;100987.03;;;19.32;60.44
54948;BME280;41113;41.882;12.530;2023-04-19T10:13:12;100988.97;;;19.09;59.40
54948;BME280;41113;41.882;12.530;2023-04-19T10:15:38;100990.66;;;19.10;60.42
54948;BME280;41113;41.882;12.530;2023-04-19T10:18:06;100986.09;;;19.25;60.29
54948;BME280;41113;41.882;12.530;2023-04-19T10:20:54;100986.72;;;19.12;58.27
54948;BME280;41113;41.882;12.530;2023-04-19T10:23:22;100978.97;;;19.24;60.16
54948;BME280;41113;41.882;12.530;2023-04-19T10:25:47;100984.59;;;19.37;60.09
54948;BME280;41113;41.882;12.530;2023-04-19T10:28:16;100978.13;;;19.38;59.93
54948;BME280;41113;41.882;12.530;2023-04-19T10:31:03;100975.94;;;19.48;58.23
54948;BME280;41113;41.882;12.530;2023-04-19T10:33:30;100977.28;;;19.52;59.05
54948;BME280;41113;41.882;12.530;2023-04-19T10:35:59;100979.44;;;19.42;59.31
54948;BME280;41113;41.882;12.530;2023-04-19T10:38:54;100970.50;;;19.48;56.89
54948;BME280;41113;41.882;12.530;2023-04-19T10:41:20;100969.72;;;19.63;58.84
54948;BME280;41113;41.882;12.530;2023-04-19T10:48:57;100956.84;;;19.56;57.45
54948;BME280;41113;41.882;12.530;2023-04-19T10:51:27;100956.34;;;19.68;57.37
54948;BME280;41113;41.882;12.530;2023-04-19T10:53:55;100948.53;;;19.35;54.95
54948;BME280;41113;41.882;12.530;2023-04-19T10:59:28;100956.81;;;19.86;56.96
54948;BME280;41113;41.882;12.530;2023-04-19T11:01:56;100957.44;;;20.03;56.99
54948;BME280;41113;41.882;12.530;2023-04-19T11:07:01;100945.34;;;19.76;56.72
54948;BME280;41113;41.882;12.530;2023-04-19T11:09:29;100941.31;;;19.86;57.10
54948;BME280;41113;41.882;12.530;2023-04-19T11:12:05;100938.00;;;19.91;55.18
54948;BME280;41113;41.882;12.530;2023-04-19T11:14:36;100940.94;;;19.75;56.81
54948;BME280;41113;41.882;12.530;2023-04-19T11:19:44;100941.38;;;19.93;55.99
54948;BME280;41113;41.882;12.530;2023-04-19T11:22:17;100928.94;;;20.05;53.50
54948;BME280;41113;41.882;12.530;2023-04-19T11:24:45;100929.06;;;19.97;55.37
54948;BME280;41113;41.882;12.530;2023-04-19T11:27:12;100926.09;;;20.13;55.23
54948;BME280;41113;41.882;12.530;2023-04-19T11:29:37;100922.88;;;20.25;54.81
54948;BME280;41113;41.882;12.530;2023-04-19T11:32:03;100922.09;;;20.31;53.89
54948;BME280;41113;41.882;12.530;2023-04-19T11:34:28;100913.97;;;20.37;53.64
54948;BME280;41113;41.882;12.530;2023-04-19T11:36:54;100909.66;;;20.43;54.06
54948;BME280;41113;41.882;12.530;2023-04-19T11:39:19;100910.78;;;20.34;54.01
54948;BME280;41113;41.882;12.530;2023-04-19T11:41:46;100910.66;;;20.20;54.93
54948;BME280;41113;41.882;12.530;2023-04-19T11:44:15;100910.25;;;20.02;54.44
54948;BME280;41113;41.882;12.530;2023-04-19T11:46:41;100910.28;;;19.87;55.47
54948;BME280;41113;41.882;12.530;2023-04-19T11:49:07;100908.97;;;19.83;56.12
54948;BME280;41113;41.882;12.530;2023-04-19T11:51:33;100907.78;;;19.71;55.78
54948;BME280;41113;41.882;12.530;2023-04-19T11:53:58;100909.06;;;19.90;56.09
54948;BME280;41113;41.882;12.530;2023-04-19T11:56:23;100907.13;;;20.05;55.65
54948;BME280;41113;41.882;12.530;2023-04-19T11:58:49;100900.22;;;20.24;55.74
54948;BME280;41113;41.882;12.530;2023-04-19T12:01:18;100899.69;;;20.35;56.01
54948;BME280;41113;41.882;12.530;2023-04-19T12:03:47;100907.47;;;20.38;55.86
54948;BME280;41113;41.882;12.530;2023-04-19T12:08:50;100899.19;;;20.46;56.10
54948;BME280;41113;41.882;12.530;2023-04-19T12:11:19;100897.81;;;20.36;56.52
54948;BME280;41113;41.882;12.530;2023-04-19T12:13:45;100890.59;;;20.28;56.00
54948;BME280;41113;41.882;12.530;2023-04-19T12:16:11;100886.44;;;20.32;57.05
54948;BME280;41113;41.882;12.530;2023-04-19T12:18:49;100887.91;;;20.13;56.75
54948;BME280;41113;41.882;12.530;2023-04-19T12:23:52;100889.06;;;20.04;57.63
54948;BME280;41113;41.882;12.530;2023-04-19T12:26:18;100882.84;;;20.10;57.38
54948;BME280;41113;41.882;12.530;2023-04-19T12:28:43;100881.63;;;20.13;57.21
54948;BME280;41113;41.882;12.530;2023-04-19T12:31:09;100875.41;;;20.19;57.26
54948;BME280;41113;41.882;12.530;2023-04-19T12:33:34;100877.53;;;20.24;57.04
54948;BME280;41113;41.882;12.530;2023-04-19T12:36:00;100872.03;;;20.17;57.18
54948;BME280;41113;41.882;12.530;2023-04-19T12:38:25;100861.97;;;20.17;57.14
54948;BME280;41113;41.882;12.530;2023-04-19T12:40:50;100863.66;;;20.18;56.82
54948;BME280;41113;41.882;12.530;2023-04-19T12:43:16;100857.81;;;20.22;56.98
54948;BME280;41113;41.882;12.530;2023-04-19T12:45:41;100859.88;;;20.19;56.92
54948;BME280;41113;41.882;12.530;2023-04-19T12:48:06;100861.22;;;20.09;56.68
54948;BME280;41113;41.882;12.530;2023-04-19T12:50:32;100867.28;;;20.04;56.71
54948;BME280;41113;41.882;12.530;2023-04-19T12:52:57;100862.28;;;20.08;56.88
54948;BME280;41113;41.882;12.530;2023-04-19T12:55:22;100862.66;;;20.05;56.72